Arch, NM

5:52 PM MDT on August 29, 2016 (GMT -0600)
APRSWXNET | | Change Station

Elev 4009 ft 34.17 °N, 103.35 °W | Updated 39 minutes ago

Overcast
Overcast
67 °F
Feels Like 67 °F
N
5
Wind Variable Wind from East
Gusts 0.0 mph

Today
High -- | Low -- °F
--% Chance of Precip.
Yesterday
High -- | Low -- °F
Precip. -- in
Pressure 30.25 in
Visibility 10.0 miles
Clouds Scattered Clouds 4800 ft
Overcast 6000 ft
Dew Point 62 °F
Humidity 85%
Rainfall in
Snow Depth Not available.
6:25 AM 7:22 PM
Waning Crescent, 6% visible
SPECI KCVS 292348Z AUTO 06008KT 10SM SCT048 OVC060 18/18 A3025 RMK AO2 RAE24DZB24E27
Pressure 30.25 in
Visibility 10.0 miles
Clouds Scattered Clouds 4800 ft
Overcast 6000 ft
Dew Point 62 °F
Humidity 85%
Rainfall in
Snow Depth Not available.
6:25 AM 7:22 PM
Waning Crescent, 6% visible
SPECI KCVS 292348Z AUTO 06008KT 10SM SCT048 OVC060 18/18 A3025 RMK AO2 RAE24DZB24E27

10-Day Weather Forecast

Almanac

Astronomy

Aug. 29, 2016 Rise Set
Actual Time
Civil Twilight
Nautical Twilight
Astronomical Twilight
Moon
Length of Visible Light
Length of Day
Tomorrow will be .
, % of the Moon is Illuminated

Today's Extremes

State Highs State Lows

Community

WunderPhotos

Upload Photos

1,935,695 photos uploaded!

WunderBlog® & News

Nearby

Air Quality

  Air Quality AQ Index Pollutant
Not available.

Snow Depth

Station Depth Elevation

Earthquake Activity

City Distance Mag. Time & Date
Minimum magnitude displayed is 2.5.

Coastal Water Temperatures

Place Temperature

Stations

Nearby Weather Stations

Station Location Temp. Windchill Dew Point Humidity Wind Precip. Elev Updated Type
                   

Watches & Warnings

There are currently no watches in effect.